createdAt,value
2019-05-02T00:00:53.587Z,20.23
2019-05-02T00:03:23.698Z,22.13
2019-05-02T00:05:52.119Z,22.42
2019-05-02T00:08:20.739Z,20.68
2019-05-02T00:10:49.842Z,20.80
2019-05-02T00:13:18.696Z,21.75
2019-05-02T00:15:49.011Z,21.62
2019-05-02T00:18:18.315Z,23.10
2019-05-02T00:20:46.799Z,22.67
2019-05-02T00:23:15.735Z,21.97
2019-05-02T00:25:47.399Z,22.70
2019-05-02T00:28:14.720Z,21.48
2019-05-02T00:30:43.375Z,22.15
2019-05-02T00:33:11.842Z,24.60
2019-05-02T00:35:40.914Z,23.10
2019-05-02T00:38:10.344Z,22.73
2019-05-02T00:40:39.109Z,25.50
2019-05-02T00:43:08.007Z,23.45
2019-05-02T00:45:36.710Z,23.87
2019-05-02T00:48:09.505Z,23.05
2019-05-02T00:53:12.252Z,21.95
2019-05-02T00:55:41.073Z,23.57
2019-05-02T00:58:09.487Z,24.05
2019-05-02T01:00:48.672Z,22.32
2019-05-02T01:03:17.904Z,22.62
2019-05-02T01:05:46.912Z,23.05
2019-05-02T01:08:15.327Z,23.30
2019-05-02T01:10:43.770Z,22.62
2019-05-02T01:13:14.809Z,23.00
2019-05-02T01:15:44.009Z,22.48
2019-05-02T01:18:12.910Z,21.55
2019-05-02T01:20:41.318Z,22.67
2019-05-02T01:23:10.091Z,23.27
2019-05-02T01:25:38.652Z,22.65
2019-05-02T01:28:17.273Z,23.87
2019-05-02T01:30:46.007Z,23.85
2019-05-02T01:33:16.094Z,24.47
2019-05-02T01:35:46.143Z,24.85
2019-05-02T01:38:18.942Z,24.92
2019-05-02T01:43:27.066Z,23.75
2019-05-02T01:45:55.521Z,24.98
2019-05-02T01:48:23.991Z,24.00
2019-05-02T01:50:52.793Z,22.37
2019-05-02T01:53:21.488Z,23.60
2019-05-02T01:55:52.080Z,23.10
2019-05-02T01:58:21.009Z,23.45
2019-05-02T02:00:50.809Z,22.73
2019-05-02T02:03:19.545Z,23.47
2019-05-02T02:05:48.335Z,24.72
2019-05-02T02:08:17.167Z,23.02
2019-05-02T02:10:45.588Z,25.30
2019-05-02T02:13:14.038Z,24.35
2019-05-02T02:15:42.789Z,25.85
2019-05-02T02:18:12.507Z,25.05
2019-05-02T02:20:54.602Z,24.63
2019-05-02T02:23:27.999Z,24.43
2019-05-02T02:26:01.503Z,24.25
2019-05-02T02:28:32.081Z,24.10
2019-05-02T02:31:05.059Z,24.75
2019-05-02T02:33:30.437Z,24.63
2019-05-02T02:35:59.238Z,24.60
2019-05-02T02:38:33.626Z,25.62
2019-05-02T02:40:57.719Z,25.25
2019-05-02T02:43:34.352Z,24.30
2019-05-02T02:46:02.113Z,23.70
2019-05-02T02:48:33.795Z,26.52
2019-05-02T02:51:01.692Z,26.00
2019-05-02T02:53:30.469Z,25.85
2019-05-02T02:56:01.780Z,28.35
2019-05-02T02:58:30.273Z,28.47
2019-05-02T03:00:59.062Z,26.95
2019-05-02T03:03:30.001Z,26.80
2019-05-02T03:05:58.593Z,26.12
2019-05-02T03:08:27.914Z,26.90
2019-05-02T03:10:56.454Z,25.02
2019-05-02T03:13:26.516Z,25.43
2019-05-02T03:16:06.263Z,26.02
2019-05-02T03:18:39.998Z,25.68
2019-05-02T03:21:01.060Z,27.05
2019-05-02T03:23:29.666Z,25.82
2019-05-02T03:25:58.119Z,24.60
2019-05-02T03:28:26.583Z,25.80
2019-05-02T03:30:55.063Z,24.82
2019-05-02T03:33:29.812Z,24.70
2019-05-02T03:35:58.240Z,25.35
2019-05-02T03:38:32.420Z,26.23
2019-05-02T03:40:57.289Z,27.05
2019-05-02T03:43:27.761Z,25.97
2019-05-02T03:45:56.093Z,26.15
2019-05-02T03:48:25.719Z,28.70
2019-05-02T03:50:54.899Z,26.62
2019-05-02T03:53:25.327Z,28.52
2019-05-02T03:55:53.427Z,24.98
2019-05-02T03:58:22.046Z,27.62
2019-05-02T04:01:00.356Z,27.13
2019-05-02T04:03:21.323Z,28.92
2019-05-02T04:05:49.790Z,26.75
2019-05-02T04:08:20.911Z,28.25
2019-05-02T04:11:08.247Z,26.20
2019-05-02T04:13:38.231Z,28.87
2019-05-02T04:16:14.636Z,27.48
2019-05-02T04:18:37.535Z,29.77
2019-05-02T04:21:06.325Z,26.73
2019-05-02T04:23:36.507Z,28.07
2019-05-02T04:26:06.854Z,25.27
2019-05-02T04:28:36.436Z,29.05
2019-05-02T04:31:05.206Z,30.43
2019-05-02T04:33:36.333Z,30.23
2019-05-02T04:36:14.027Z,28.77
2019-05-02T04:38:44.511Z,28.60
2019-05-02T04:41:04.405Z,29.63
2019-05-02T04:43:32.821Z,30.45
2019-05-02T04:46:01.356Z,32.13
2019-05-02T04:48:34.659Z,33.02
2019-05-02T04:51:09.871Z,32.70
2019-05-02T04:53:36.680Z,30.08
2019-05-02T04:56:06.611Z,33.98
2019-05-02T04:58:34.826Z,34.10
2019-05-02T05:01:01.805Z,34.65
2019-05-02T05:03:30.535Z,33.18
2019-05-02T05:06:07.084Z,35.38
2019-05-02T05:08:31.912Z,32.33
2019-05-02T05:10:59.743Z,35.35
2019-05-02T05:13:29.070Z,36.45
2019-05-02T05:15:58.036Z,35.48
2019-05-02T05:18:27.419Z,37.48
2019-05-02T05:20:57.632Z,37.88
2019-05-02T05:23:30.595Z,38.60
2019-05-02T05:26:03.363Z,38.42
2019-05-02T05:28:29.894Z,40.17
2019-05-02T05:30:58.408Z,39.13
2019-05-02T05:33:28.339Z,35.15
2019-05-02T05:35:57.834Z,37.28
2019-05-02T05:38:28.520Z,37.03
2019-05-02T05:40:58.048Z,35.52
2019-05-02T05:43:27.614Z,37.95
2019-05-02T05:46:06.123Z,35.90
2019-05-02T05:48:27.409Z,36.58
2019-05-02T05:50:57.881Z,36.23
2019-05-02T05:53:27.752Z,39.98
2019-05-02T05:55:58.906Z,37.93
2019-05-02T05:58:28.407Z,36.77
2019-05-02T06:00:58.411Z,35.78
2019-05-02T06:03:27.834Z,37.00
2019-05-02T06:05:57.973Z,38.85
2019-05-02T06:08:26.464Z,36.88
2019-05-02T06:10:54.911Z,39.67
2019-05-02T06:13:23.365Z,36.65
2019-05-02T06:16:02.048Z,38.63
2019-05-02T06:18:21.920Z,37.95
2019-05-02T06:20:50.435Z,34.78
2019-05-02T06:23:19.015Z,36.25
2019-05-02T06:25:47.763Z,38.55
2019-05-02T06:28:16.155Z,35.52
2019-05-02T06:30:45.063Z,39.53
2019-05-02T06:33:13.816Z,37.73
2019-05-02T06:35:42.294Z,39.30
2019-05-02T06:38:10.803Z,37.88
2019-05-02T06:40:44.117Z,38.70
2019-05-02T06:43:10.195Z,40.17
2019-05-02T06:45:39.718Z,38.92
2019-05-02T06:48:08.224Z,38.05
2019-05-02T06:50:38.917Z,39.38
2019-05-02T06:53:09.536Z,41.05
2019-05-02T06:55:38.885Z,38.40
2019-05-02T06:58:08.182Z,38.53
2019-05-02T07:00:55.204Z,40.73
2019-05-02T07:03:10.095Z,39.25
2019-05-02T07:05:37.407Z,40.52
2019-05-02T07:08:11.444Z,42.62
2019-05-02T07:10:44.470Z,42.65
2019-05-02T07:13:10.945Z,40.80
2019-05-02T07:15:40.330Z,40.33
2019-05-02T07:18:16.230Z,39.50
2019-05-02T07:20:44.680Z,43.90
2019-05-02T07:23:16.184Z,43.35
2019-05-02T07:25:43.960Z,44.00
2019-05-02T07:28:12.967Z,41.25
2019-05-02T07:30:41.717Z,37.30
2019-05-02T07:33:10.132Z,43.50
2019-05-02T07:35:38.582Z,39.73
2019-05-02T07:38:06.999Z,40.23
2019-05-02T07:40:35.447Z,43.10
2019-05-02T07:43:03.852Z,40.03
2019-05-02T07:45:32.692Z,39.80
2019-05-02T07:48:01.559Z,43.60
2019-05-02T07:50:30.179Z,39.58
2019-05-02T07:52:58.588Z,42.03
2019-05-02T07:55:30.525Z,42.95
2019-05-02T07:58:02.025Z,41.75
2019-05-02T08:00:32.111Z,41.75
2019-05-02T08:02:59.418Z,39.33
2019-05-02T08:05:27.899Z,42.08
2019-05-02T08:07:56.458Z,41.55
2019-05-02T08:10:24.917Z,41.83
2019-05-02T08:12:53.368Z,39.10
2019-05-02T08:15:24.322Z,40.52
2019-05-02T08:17:54.036Z,39.98
2019-05-02T08:20:22.551Z,38.02
2019-05-02T08:22:51.002Z,41.35
2019-05-02T08:25:19.419Z,43.52
2019-05-02T08:27:49.470Z,43.38
2019-05-02T08:30:19.565Z,41.63
2019-05-02T08:32:47.975Z,43.55
2019-05-02T08:35:16.468Z,43.00
2019-05-02T08:37:44.914Z,40.33
2019-05-02T08:40:13.368Z,42.20
2019-05-02T08:42:41.837Z,40.65
2019-05-02T08:45:10.682Z,39.38
2019-05-02T08:47:39.083Z,42.67
2019-05-02T08:50:07.882Z,42.20
2019-05-02T08:52:36.936Z,41.13
2019-05-02T08:55:09.736Z,43.02
2019-05-02T08:57:37.794Z,43.02
2019-05-02T09:00:06.768Z,41.20
2019-05-02T09:02:41.408Z,43.42
2019-05-02T09:05:06.318Z,39.88
2019-05-02T09:07:37.109Z,43.42
2019-05-02T09:10:08.354Z,40.88
2019-05-02T09:12:42.338Z,39.10
2019-05-02T09:15:07.151Z,39.50
2019-05-02T09:17:38.651Z,40.40
2019-05-02T09:20:15.416Z,38.83
2019-05-02T09:22:36.620Z,37.58
2019-05-02T09:25:07.982Z,37.88
2019-05-02T09:27:36.834Z,38.28
2019-05-02T09:30:12.144Z,38.28
2019-05-02T09:32:41.844Z,38.88
2019-05-02T09:35:11.688Z,37.28
2019-05-02T09:37:41.873Z,37.63
2019-05-02T09:40:12.493Z,35.50
2019-05-02T09:42:42.775Z,36.03
2019-05-02T09:45:15.751Z,35.75
2019-05-02T09:47:56.668Z,37.38
2019-05-02T09:50:14.903Z,35.65
2019-05-02T09:52:44.140Z,36.17
2019-05-02T09:55:13.902Z,41.05
2019-05-02T09:57:42.862Z,40.00
2019-05-02T10:00:32.138Z,38.92
2019-05-02T10:02:57.334Z,36.73
2019-05-02T10:05:25.734Z,36.38
2019-05-02T10:07:57.571Z,38.70
2019-05-02T10:10:24.023Z,39.23
2019-05-02T10:12:52.210Z,37.23
2019-05-02T10:15:22.228Z,37.67
2019-05-02T10:17:51.883Z,37.67
2019-05-02T10:20:23.451Z,37.53
2019-05-02T10:22:50.100Z,37.95
2019-05-02T10:25:18.267Z,36.38
2019-05-02T10:27:47.610Z,37.53
2019-05-02T10:30:16.820Z,38.67
2019-05-02T10:32:47.275Z,38.13
2019-05-02T10:35:16.801Z,39.92
2019-05-02T10:37:45.051Z,38.55
2019-05-02T10:40:17.162Z,38.17
2019-05-02T10:42:44.104Z,39.90
2019-05-02T10:45:16.580Z,40.15
2019-05-02T10:47:42.598Z,41.18
2019-05-02T10:50:12.401Z,41.85
2019-05-02T10:52:42.399Z,42.58
2019-05-02T10:55:12.762Z,44.35
2019-05-02T10:57:42.098Z,42.33
2019-05-02T11:00:12.080Z,45.43
2019-05-02T11:02:58.058Z,44.77
2019-05-02T11:05:27.318Z,43.20
2019-05-02T11:07:56.806Z,45.17
2019-05-02T11:10:25.366Z,45.67
2019-05-02T11:12:56.304Z,44.55
2019-05-02T11:15:35.490Z,44.98
2019-05-02T11:18:03.850Z,42.35
2019-05-02T11:20:32.109Z,43.98
2019-05-02T11:23:02.090Z,44.15
2019-05-02T11:25:31.938Z,45.05
2019-05-02T11:28:02.874Z,46.48
2019-05-02T11:30:31.567Z,46.50
2019-05-02T11:32:59.878Z,48.80
2019-05-02T11:35:28.049Z,49.85
2019-05-02T11:37:56.257Z,51.13
2019-05-02T11:40:24.820Z,54.25
2019-05-02T11:42:57.233Z,52.20
2019-05-02T11:45:23.314Z,53.40
2019-05-02T11:47:54.466Z,52.05
2019-05-02T11:50:22.120Z,50.40
2019-05-02T11:52:52.154Z,49.35
2019-05-02T11:55:24.700Z,54.00
2019-05-02T11:57:52.228Z,51.05
2019-05-02T12:00:21.748Z,48.58
2019-05-02T12:02:56.289Z,46.28
2019-05-02T12:05:26.667Z,45.12
2019-05-02T12:07:53.383Z,47.03
2019-05-02T12:10:21.667Z,45.25
2019-05-02T12:12:52.541Z,47.90
2019-05-02T12:15:21.661Z,48.05
2019-05-02T12:17:51.670Z,46.83
2019-05-02T12:20:19.906Z,46.83
2019-05-02T12:22:48.190Z,50.45
2019-05-02T12:25:16.926Z,51.42
2019-05-02T12:27:45.129Z,49.75
2019-05-02T12:30:13.320Z,49.85
2019-05-02T12:32:42.785Z,45.12
2019-05-02T12:35:11.847Z,46.35
2019-05-02T12:37:42.247Z,43.70
2019-05-02T12:40:12.068Z,46.45
2019-05-02T12:42:41.725Z,40.83
2019-05-02T12:45:09.952Z,38.53
2019-05-02T12:47:38.505Z,39.58
2019-05-02T12:50:06.683Z,40.63
2019-05-02T12:52:34.894Z,43.63
2019-05-02T12:55:03.856Z,41.35
2019-05-02T12:57:32.204Z,43.05
2019-05-02T13:00:01.869Z,41.28
2019-05-02T13:02:46.943Z,40.23
2019-05-02T13:05:15.627Z,34.65
2019-05-02T13:07:50.609Z,29.75
2019-05-02T13:10:15.359Z,26.82
2019-05-02T13:12:46.833Z,24.47
2019-05-02T13:15:15.429Z,24.10
2019-05-02T13:17:48.732Z,19.00
2019-05-02T13:20:15.397Z,19.02
2019-05-02T13:23:03.440Z,18.07
2019-05-02T13:25:36.629Z,18.57
2019-05-02T13:28:01.979Z,18.50
2019-05-02T13:30:42.440Z,18.37
2019-05-02T13:33:03.854Z,16.42
2019-05-02T13:35:39.790Z,17.60
2019-05-02T13:38:09.368Z,18.87
2019-05-02T13:40:41.649Z,18.82
2019-05-02T13:43:09.589Z,18.17
2019-05-02T13:45:42.537Z,18.02
2019-05-02T13:48:12.196Z,17.57
2019-05-02T13:50:42.267Z,18.20
2019-05-02T13:53:12.185Z,17.05
2019-05-02T13:55:42.709Z,17.65
2019-05-02T13:58:11.841Z,16.23
2019-05-02T14:00:48.523Z,16.00
2019-05-02T14:03:17.158Z,15.15
2019-05-02T14:05:50.658Z,17.05
2019-05-02T14:08:18.453Z,16.05
2019-05-02T14:10:54.382Z,15.35
2019-05-02T14:13:22.583Z,16.23
2019-05-02T14:15:52.627Z,17.37
2019-05-02T14:18:23.317Z,17.10
2019-05-02T14:20:52.594Z,17.15
2019-05-02T14:23:22.106Z,14.87
2019-05-02T14:25:51.921Z,15.45
2019-05-02T14:28:22.270Z,17.75
2019-05-02T14:30:52.296Z,17.77
2019-05-02T14:33:23.255Z,15.08
2019-05-02T14:35:52.629Z,16.62
2019-05-02T14:38:22.112Z,15.95
2019-05-02T14:40:57.884Z,16.73
2019-05-02T14:43:47.849Z,17.82
2019-05-02T14:46:17.435Z,17.37
2019-05-02T14:48:45.580Z,16.25
2019-05-02T14:51:16.713Z,15.80
2019-05-02T14:53:43.625Z,15.00
2019-05-02T14:56:16.438Z,15.55
2019-05-02T15:01:16.969Z,15.03
2019-05-02T15:03:42.498Z,14.98
2019-05-02T15:06:11.736Z,12.63
2019-05-02T15:08:42.049Z,12.28
2019-05-02T15:11:12.407Z,12.98
2019-05-02T15:13:41.310Z,13.03
2019-05-02T15:16:17.499Z,13.03
2019-05-02T15:18:41.901Z,13.13
2019-05-02T15:21:16.381Z,11.73
2019-05-02T15:23:42.878Z,8.88
2019-05-02T15:26:13.688Z,9.60
2019-05-02T15:28:42.174Z,9.48
2019-05-02T15:31:19.069Z,10.18
2019-05-02T15:34:05.049Z,11.05
2019-05-02T15:36:32.357Z,11.60
2019-05-02T15:41:32.609Z,10.75
2019-05-02T15:44:01.978Z,10.45
2019-05-02T15:46:31.921Z,7.67
2019-05-02T15:49:19.710Z,7.33
2019-05-02T15:51:49.983Z,7.53
2019-05-02T15:54:19.313Z,7.58
2019-05-02T15:57:00.649Z,7.47
2019-05-02T15:59:32.585Z,7.20
2019-05-02T16:02:06.065Z,6.12
2019-05-02T16:04:35.934Z,5.78
2019-05-02T16:07:06.970Z,4.60
2019-05-02T16:09:33.959Z,4.60
2019-05-02T16:12:03.068Z,5.53
2019-05-02T16:14:34.204Z,5.55
2019-05-02T16:17:03.673Z,6.22
2019-05-02T16:19:32.971Z,5.33
2019-05-02T16:22:18.114Z,5.20
2019-05-02T16:24:49.000Z,4.30
2019-05-02T16:27:21.224Z,3.85
2019-05-02T16:29:46.377Z,4.35
2019-05-02T16:32:19.438Z,4.28
2019-05-02T16:34:54.373Z,3.22
2019-05-02T16:37:22.534Z,4.20
2019-05-02T16:39:51.111Z,4.65
2019-05-02T16:42:19.450Z,3.15
2019-05-02T16:44:47.612Z,3.25
2019-05-02T16:47:15.838Z,3.70
2019-05-02T16:49:47.927Z,3.00
2019-05-02T16:52:16.093Z,2.87
2019-05-02T16:54:45.336Z,2.35
2019-05-02T16:57:17.407Z,2.85
2019-05-02T16:59:44.492Z,3.62
2019-05-02T17:02:12.903Z,3.00
2019-05-02T17:04:42.721Z,2.42
2019-05-02T17:07:12.678Z,2.85
2019-05-02T17:09:59.183Z,2.65
2019-05-02T17:12:27.448Z,2.67
2019-05-02T17:15:14.133Z,3.05
2019-05-02T17:17:44.483Z,2.85
2019-05-02T17:20:16.514Z,2.70
2019-05-02T17:22:43.943Z,2.72
2019-05-02T17:25:14.910Z,2.42
2019-05-02T17:27:43.485Z,2.87
2019-05-02T17:30:12.063Z,2.87
2019-05-02T17:32:41.532Z,2.50
2019-05-02T17:35:11.576Z,2.27
2019-05-02T17:37:40.587Z,2.30
2019-05-02T17:40:09.567Z,2.10
2019-05-02T17:42:37.786Z,2.50
2019-05-02T17:45:10.422Z,2.12
2019-05-02T17:47:38.596Z,2.40
2019-05-02T17:50:17.759Z,1.85
2019-05-02T17:52:56.122Z,2.00
2019-05-02T17:55:24.929Z,2.00
2019-05-02T17:57:53.488Z,2.42
2019-05-02T18:00:23.710Z,2.12
2019-05-02T18:02:53.328Z,2.25
2019-05-02T18:05:26.599Z,1.90
2019-05-02T18:07:52.668Z,2.22
2019-05-02T18:10:24.443Z,2.27
2019-05-02T18:12:58.157Z,2.30
2019-05-02T18:15:22.695Z,2.20
2019-05-02T18:17:52.276Z,1.87
2019-05-02T18:20:21.919Z,2.02
2019-05-02T18:22:51.958Z,2.70
2019-05-02T18:25:23.614Z,2.12
2019-05-02T18:27:51.627Z,1.80
2019-05-02T18:30:22.875Z,2.10
2019-05-02T18:32:52.712Z,1.87
2019-05-02T18:35:22.033Z,1.90
2019-05-02T18:37:51.805Z,1.80
2019-05-02T18:40:27.579Z,2.47
2019-05-02T18:42:51.798Z,1.82
2019-05-02T18:45:25.430Z,2.25
2019-05-02T18:47:53.962Z,2.25
2019-05-02T18:50:45.139Z,1.87
2019-05-02T18:53:10.274Z,2.50
2019-05-02T18:55:38.730Z,3.08
2019-05-02T18:58:07.008Z,3.80
2019-05-02T19:00:39.544Z,2.83
2019-05-02T19:03:07.535Z,3.00
2019-05-02T19:05:36.686Z,2.77
2019-05-02T19:08:05.116Z,3.12
2019-05-02T19:10:37.090Z,2.47
2019-05-02T19:13:05.849Z,2.20
2019-05-02T19:15:34.658Z,2.80
2019-05-02T19:18:03.535Z,2.08
2019-05-02T19:20:39.239Z,2.45
2019-05-02T19:23:07.850Z,2.30
2019-05-02T19:25:36.356Z,2.15
2019-05-02T19:28:06.228Z,2.47
2019-05-02T19:30:38.580Z,2.47
2019-05-02T19:33:08.034Z,2.60
2019-05-02T19:35:37.673Z,2.50
2019-05-02T19:38:07.840Z,2.77
2019-05-02T19:40:36.038Z,3.08
2019-05-02T19:43:07.626Z,2.67
2019-05-02T19:45:34.163Z,3.05
2019-05-02T19:48:02.785Z,2.47
2019-05-02T19:50:39.241Z,2.83
2019-05-02T19:53:04.475Z,2.58
2019-05-02T19:55:32.563Z,3.47
2019-05-02T19:58:02.285Z,3.37
2019-05-02T20:00:31.824Z,2.67
2019-05-02T20:03:01.797Z,2.70
2019-05-02T20:05:32.164Z,3.05
2019-05-02T20:08:02.546Z,2.87
2019-05-02T20:10:32.156Z,3.50
2019-05-02T20:13:03.116Z,3.50
2019-05-02T20:15:33.271Z,3.10
2019-05-02T20:18:04.621Z,2.77
2019-05-02T20:20:44.183Z,3.08
2019-05-02T20:23:17.900Z,3.10
2019-05-02T20:25:43.731Z,3.20
2019-05-02T20:28:12.304Z,3.30
2019-05-02T20:30:42.142Z,2.85
2019-05-02T20:33:12.727Z,3.52
2019-05-02T20:35:42.140Z,3.50
2019-05-02T20:38:11.785Z,3.50
2019-05-02T20:40:42.644Z,3.42
2019-05-02T20:43:12.131Z,3.55
2019-05-02T20:45:40.406Z,4.03
2019-05-02T20:48:09.064Z,3.92
2019-05-02T20:50:37.550Z,3.42
2019-05-02T20:53:06.044Z,3.67
2019-05-02T20:55:34.272Z,3.92
2019-05-02T20:58:02.473Z,3.50
2019-05-02T21:00:32.196Z,4.35
2019-05-02T21:03:02.763Z,3.42
2019-05-02T21:05:35.695Z,4.10
2019-05-02T21:08:06.612Z,4.25
2019-05-02T21:10:36.857Z,4.25
2019-05-02T21:13:05.351Z,4.30
2019-05-02T21:15:33.856Z,4.30
2019-05-02T21:18:03.103Z,4.17
2019-05-02T21:20:32.562Z,4.45
2019-05-02T21:23:02.001Z,4.28
2019-05-02T21:25:32.418Z,4.37
2019-05-02T21:28:00.137Z,4.22
2019-05-02T21:30:28.344Z,4.55
2019-05-02T21:32:56.837Z,5.10
2019-05-02T21:35:25.034Z,4.53
2019-05-02T21:37:53.208Z,4.37
2019-05-02T21:40:22.697Z,4.70
2019-05-02T21:42:54.201Z,5.15
2019-05-02T21:45:22.402Z,4.47
2019-05-02T21:47:52.745Z,5.33
2019-05-02T21:50:35.385Z,4.97
2019-05-02T21:53:08.665Z,5.10
2019-05-02T21:55:55.844Z,5.30
2019-05-02T21:58:24.006Z,5.75
2019-05-02T22:00:55.033Z,5.60
2019-05-02T22:03:23.683Z,6.17
2019-05-02T22:05:51.883Z,5.70
2019-05-02T22:08:21.644Z,5.35
2019-05-02T22:10:52.085Z,6.28
2019-05-02T22:13:22.208Z,5.92
2019-05-02T22:15:51.590Z,5.67
2019-05-02T22:18:21.535Z,5.87
2019-05-02T22:20:52.164Z,5.85
2019-05-02T22:23:20.192Z,5.87
2019-05-02T22:25:48.873Z,6.47
2019-05-02T22:28:17.071Z,6.50
2019-05-02T22:30:45.772Z,5.65
2019-05-02T22:33:13.975Z,5.70
2019-05-02T22:35:43.375Z,5.70
2019-05-02T22:38:13.674Z,5.58
2019-05-02T22:40:43.256Z,4.95
2019-05-02T22:43:12.998Z,6.08
2019-05-02T22:45:41.787Z,5.30
2019-05-02T22:48:11.910Z,4.53
2019-05-02T22:50:41.788Z,4.65
2019-05-02T22:53:09.994Z,4.80
2019-05-02T22:55:38.189Z,5.45
2019-05-02T22:58:06.373Z,5.53
2019-05-02T23:00:35.067Z,5.00
2019-05-02T23:03:03.238Z,4.10
2019-05-02T23:05:32.129Z,5.35
2019-05-02T23:08:02.296Z,4.62
2019-05-02T23:10:32.573Z,5.05
2019-05-02T23:13:02.418Z,4.67
2019-05-02T23:15:32.120Z,4.12
2019-05-02T23:18:01.662Z,5.55
2019-05-02T23:20:30.278Z,4.92
2019-05-02T23:22:58.887Z,4.47
2019-05-02T23:25:39.173Z,4.97
2019-05-02T23:28:09.094Z,4.33
2019-05-02T23:30:37.591Z,5.40
2019-05-02T23:33:05.866Z,4.83
2019-05-02T23:35:34.427Z,5.28
2019-05-02T23:38:02.694Z,4.47
2019-05-02T23:40:30.870Z,5.28
2019-05-02T23:42:59.101Z,5.58
2019-05-02T23:45:27.288Z,5.15
2019-05-02T23:47:55.843Z,5.00
2019-05-02T23:50:24.009Z,4.95
2019-05-02T23:52:52.259Z,5.17
2019-05-02T23:55:20.396Z,4.67
2019-05-02T23:57:48.761Z,4.55
